sensor_id;sensor_type;location;lat;lon;timestamp;P1;durP1;ratioP1;P2;durP2;ratioP2
34290;SDS011;20553;47.544;7.586;2022-09-02T00:04:46;6.67;;;6.07;;
34290;SDS011;20553;47.544;7.586;2022-09-02T00:09:51;6.88;;;6.30;;
34290;SDS011;20553;47.544;7.586;2022-09-02T00:14:57;6.67;;;6.07;;
34290;SDS011;20553;47.544;7.586;2022-09-02T00:20:03;6.20;;;5.70;;
34290;SDS011;20553;47.544;7.586;2022-09-02T00:25:08;6.97;;;6.38;;
34290;SDS011;20553;47.544;7.586;2022-09-02T00:30:15;6.93;;;6.33;;
34290;SDS011;20553;47.544;7.586;2022-09-02T00:35:20;7.20;;;6.60;;
34290;SDS011;20553;47.544;7.586;2022-09-02T00:40:25;8.02;;;7.25;;
34290;SDS011;20553;47.544;7.586;2022-09-02T00:45:32;6.88;;;6.25;;
34290;SDS011;20553;47.544;7.586;2022-09-02T00:50:37;6.87;;;6.27;;
34290;SDS011;20553;47.544;7.586;2022-09-02T00:55:43;7.32;;;6.68;;
34290;SDS011;20553;47.544;7.586;2022-09-02T01:00:53;7.87;;;7.17;;
34290;SDS011;20553;47.544;7.586;2022-09-02T01:06:01;6.80;;;6.30;;
34290;SDS011;20553;47.544;7.586;2022-09-02T01:11:06;7.47;;;6.78;;
34290;SDS011;20553;47.544;7.586;2022-09-02T01:16:15;8.57;;;7.68;;
34290;SDS011;20553;47.544;7.586;2022-09-02T01:21:27;7.33;;;6.73;;
34290;SDS011;20553;47.544;7.586;2022-09-02T01:26:32;8.23;;;7.53;;
34290;SDS011;20553;47.544;7.586;2022-09-02T01:31:37;8.95;;;8.05;;
34290;SDS011;20553;47.544;7.586;2022-09-02T01:36:42;7.47;;;6.88;;
34290;SDS011;20553;47.544;7.586;2022-09-02T01:41:48;6.18;;;5.68;;
34290;SDS011;20553;47.544;7.586;2022-09-02T01:46:53;7.35;;;6.75;;
34290;SDS011;20553;47.544;7.586;2022-09-02T01:51:58;7.70;;;7.10;;
34290;SDS011;20553;47.544;7.586;2022-09-02T01:57:04;8.47;;;7.70;;
34290;SDS011;20553;47.544;7.586;2022-09-02T02:02:08;8.37;;;7.50;;
34290;SDS011;20553;47.544;7.586;2022-09-02T02:07:15;8.20;;;7.50;;
34290;SDS011;20553;47.544;7.586;2022-09-02T02:12:23;8.30;;;7.60;;
34290;SDS011;20553;47.544;7.586;2022-09-02T02:17:29;8.83;;;8.03;;
34290;SDS011;20553;47.544;7.586;2022-09-02T02:22:34;7.72;;;7.05;;
34290;SDS011;20553;47.544;7.586;2022-09-02T02:27:42;8.70;;;7.90;;
34290;SDS011;20553;47.544;7.586;2022-09-02T02:32:47;7.95;;;7.22;;
34290;SDS011;20553;47.544;7.586;2022-09-02T02:37:53;9.03;;;8.03;;
34290;SDS011;20553;47.544;7.586;2022-09-02T02:42:59;8.75;;;7.93;;
34290;SDS011;20553;47.544;7.586;2022-09-02T02:48:04;7.30;;;6.60;;
34290;SDS011;20553;47.544;7.586;2022-09-02T02:53:09;7.75;;;6.97;;
34290;SDS011;20553;47.544;7.586;2022-09-02T02:58:17;8.18;;;7.35;;
34290;SDS011;20553;47.544;7.586;2022-09-02T03:03:22;7.72;;;7.13;;
34290;SDS011;20553;47.544;7.586;2022-09-02T03:08:29;8.13;;;7.43;;
34290;SDS011;20553;47.544;7.586;2022-09-02T03:13:36;7.77;;;7.13;;
34290;SDS011;20553;47.544;7.586;2022-09-02T03:18:40;7.53;;;6.85;;
34290;SDS011;20553;47.544;7.586;2022-09-02T03:23:45;7.95;;;7.18;;
34290;SDS011;20553;47.544;7.586;2022-09-02T03:28:53;7.27;;;6.67;;
34290;SDS011;20553;47.544;7.586;2022-09-02T03:33:58;7.05;;;6.38;;
34290;SDS011;20553;47.544;7.586;2022-09-02T03:39:04;8.15;;;7.45;;
34290;SDS011;20553;47.544;7.586;2022-09-02T03:44:15;8.07;;;7.28;;
34290;SDS011;20553;47.544;7.586;2022-09-02T03:49:20;7.68;;;6.97;;
34290;SDS011;20553;47.544;7.586;2022-09-02T03:54:24;7.55;;;6.80;;
34290;SDS011;20553;47.544;7.586;2022-09-02T03:59:32;7.23;;;6.57;;
34290;SDS011;20553;47.544;7.586;2022-09-02T04:04:37;7.63;;;7.00;;
34290;SDS011;20553;47.544;7.586;2022-09-02T04:09:42;8.02;;;7.25;;
34290;SDS011;20553;47.544;7.586;2022-09-02T04:14:49;7.50;;;6.80;;
34290;SDS011;20553;47.544;7.586;2022-09-02T04:19:59;7.23;;;6.63;;
34290;SDS011;20553;47.544;7.586;2022-09-02T04:25:07;7.40;;;6.70;;
34290;SDS011;20553;47.544;7.586;2022-09-02T04:30:14;7.68;;;6.97;;
34290;SDS011;20553;47.544;7.586;2022-09-02T04:35:20;7.63;;;6.93;;
34290;SDS011;20553;47.544;7.586;2022-09-02T04:40:25;7.70;;;7.00;;
34290;SDS011;20553;47.544;7.586;2022-09-02T04:45:31;7.25;;;6.57;;
34290;SDS011;20553;47.544;7.586;2022-09-02T04:50:39;7.43;;;6.78;;
34290;SDS011;20553;47.544;7.586;2022-09-02T04:56:10;8.10;;;7.32;;
34290;SDS011;20553;47.544;7.586;2022-09-02T05:01:49;8.82;;;8.05;;
34290;SDS011;20553;47.544;7.586;2022-09-02T05:07:10;7.70;;;6.97;;
34290;SDS011;20553;47.544;7.586;2022-09-02T05:12:59;8.10;;;7.28;;
34290;SDS011;20553;47.544;7.586;2022-09-02T05:18:28;7.90;;;7.17;;
34290;SDS011;20553;47.544;7.586;2022-09-02T05:23:46;8.20;;;7.50;;
34290;SDS011;20553;47.544;7.586;2022-09-02T05:28:56;7.72;;;6.47;;
34290;SDS011;20553;47.544;7.586;2022-09-02T05:34:03;6.07;;;5.57;;
34290;SDS011;20553;47.544;7.586;2022-09-02T05:39:09;7.17;;;6.47;;
34290;SDS011;20553;47.544;7.586;2022-09-02T05:44:14;7.07;;;6.38;;
34290;SDS011;20553;47.544;7.586;2022-09-02T05:49:20;6.43;;;5.80;;
34290;SDS011;20553;47.544;7.586;2022-09-02T05:54:43;6.25;;;5.65;;
34290;SDS011;20553;47.544;7.586;2022-09-02T05:59:52;5.83;;;5.30;;
34290;SDS011;20553;47.544;7.586;2022-09-02T06:05:05;6.60;;;5.20;;
34290;SDS011;20553;47.544;7.586;2022-09-02T06:10:20;7.03;;;4.70;;
34290;SDS011;20553;47.544;7.586;2022-09-02T06:15:25;6.82;;;4.80;;
34290;SDS011;20553;47.544;7.586;2022-09-02T06:20:39;6.28;;;4.25;;
34290;SDS011;20553;47.544;7.586;2022-09-02T06:25:46;6.90;;;4.95;;
34290;SDS011;20553;47.544;7.586;2022-09-02T06:31:05;4.38;;;3.40;;
34290;SDS011;20553;47.544;7.586;2022-09-02T06:36:28;3.70;;;3.30;;
34290;SDS011;20553;47.544;7.586;2022-09-02T06:41:36;4.57;;;3.40;;
34290;SDS011;20553;47.544;7.586;2022-09-02T06:46:47;4.00;;;3.25;;
34290;SDS011;20553;47.544;7.586;2022-09-02T06:51:59;3.70;;;2.97;;
34290;SDS011;20553;47.544;7.586;2022-09-02T06:57:07;4.47;;;3.30;;
34290;SDS011;20553;47.544;7.586;2022-09-02T07:02:13;3.70;;;2.80;;
34290;SDS011;20553;47.544;7.586;2022-09-02T07:07:21;3.33;;;2.80;;
34290;SDS011;20553;47.544;7.586;2022-09-02T07:12:32;3.00;;;2.53;;
34290;SDS011;20553;47.544;7.586;2022-09-02T07:17:41;2.93;;;2.57;;
34290;SDS011;20553;47.544;7.586;2022-09-02T07:23:03;3.10;;;2.40;;
34290;SDS011;20553;47.544;7.586;2022-09-02T07:28:10;2.80;;;2.47;;
34290;SDS011;20553;47.544;7.586;2022-09-02T07:33:16;2.95;;;2.65;;
34290;SDS011;20553;47.544;7.586;2022-09-02T07:38:22;3.25;;;2.50;;
34290;SDS011;20553;47.544;7.586;2022-09-02T07:43:29;2.53;;;2.33;;
34290;SDS011;20553;47.544;7.586;2022-09-02T07:48:37;2.53;;;2.33;;
34290;SDS011;20553;47.544;7.586;2022-09-02T07:53:44;3.42;;;2.60;;
34290;SDS011;20553;47.544;7.586;2022-09-02T07:58:53;3.60;;;2.15;;
34290;SDS011;20553;47.544;7.586;2022-09-02T08:03:59;2.97;;;2.00;;
34290;SDS011;20553;47.544;7.586;2022-09-02T08:09:11;3.77;;;2.40;;
34290;SDS011;20553;47.544;7.586;2022-09-02T08:14:18;2.88;;;2.25;;
34290;SDS011;20553;47.544;7.586;2022-09-02T08:19:27;3.35;;;2.25;;
34290;SDS011;20553;47.544;7.586;2022-09-02T08:24:32;2.53;;;2.20;;
34290;SDS011;20553;47.544;7.586;2022-09-02T08:29:37;2.93;;;2.53;;
34290;SDS011;20553;47.544;7.586;2022-09-02T08:34:41;2.38;;;1.92;;
34290;SDS011;20553;47.544;7.586;2022-09-02T08:39:47;2.60;;;1.92;;
34290;SDS011;20553;47.544;7.586;2022-09-02T08:44:52;2.38;;;2.10;;
34290;SDS011;20553;47.544;7.586;2022-09-02T08:50:09;2.30;;;2.10;;
34290;SDS011;20553;47.544;7.586;2022-09-02T08:55:20;2.33;;;2.13;;
34290;SDS011;20553;47.544;7.586;2022-09-02T09:00:33;2.50;;;1.95;;
34290;SDS011;20553;47.544;7.586;2022-09-02T09:05:47;3.08;;;2.08;;
34290;SDS011;20553;47.544;7.586;2022-09-02T09:11:08;2.53;;;1.95;;
34290;SDS011;20553;47.544;7.586;2022-09-02T09:16:27;2.80;;;2.30;;
34290;SDS011;20553;47.544;7.586;2022-09-02T09:21:42;2.80;;;2.40;;
34290;SDS011;20553;47.544;7.586;2022-09-02T09:26:50;2.58;;;2.38;;
34290;SDS011;20553;47.544;7.586;2022-09-02T09:31:57;3.25;;;2.40;;
34290;SDS011;20553;47.544;7.586;2022-09-02T09:44:38;3.10;;;2.60;;
34290;SDS011;20553;47.544;7.586;2022-09-02T09:49:47;4.00;;;3.00;;
34290;SDS011;20553;47.544;7.586;2022-09-02T09:55:05;2.72;;;2.53;;
34290;SDS011;20553;47.544;7.586;2022-09-02T10:00:26;2.63;;;2.43;;
34290;SDS011;20553;47.544;7.586;2022-09-02T10:05:35;2.63;;;2.42;;
34290;SDS011;20553;47.544;7.586;2022-09-02T10:10:53;2.58;;;2.20;;
34290;SDS011;20553;47.544;7.586;2022-09-02T10:16:11;2.50;;;2.30;;
34290;SDS011;20553;47.544;7.586;2022-09-02T10:21:38;3.90;;;2.67;;
34290;SDS011;20553;47.544;7.586;2022-09-02T10:27:01;3.00;;;2.70;;
34290;SDS011;20553;47.544;7.586;2022-09-02T10:32:19;1.92;;;1.80;;
34290;SDS011;20553;47.544;7.586;2022-09-02T10:37:58;2.40;;;2.20;;
34290;SDS011;20553;47.544;7.586;2022-09-02T10:43:19;2.70;;;2.45;;
34290;SDS011;20553;47.544;7.586;2022-09-02T10:48:43;2.40;;;2.20;;
34290;SDS011;20553;47.544;7.586;2022-09-02T10:54:07;2.53;;;2.10;;
34290;SDS011;20553;47.544;7.586;2022-09-02T10:59:29;2.67;;;2.47;;
34290;SDS011;20553;47.544;7.586;2022-09-02T11:04:43;2.50;;;2.30;;
34290;SDS011;20553;47.544;7.586;2022-09-02T11:09:58;2.25;;;2.05;;
34290;SDS011;20553;47.544;7.586;2022-09-02T11:15:13;2.60;;;2.40;;
34290;SDS011;20553;47.544;7.586;2022-09-02T11:20:27;2.13;;;1.88;;
34290;SDS011;20553;47.544;7.586;2022-09-02T11:25:45;2.13;;;2.00;;
34290;SDS011;20553;47.544;7.586;2022-09-02T11:30:59;2.58;;;2.03;;
34290;SDS011;20553;47.544;7.586;2022-09-02T11:36:12;2.23;;;2.03;;
34290;SDS011;20553;47.544;7.586;2022-09-02T11:41:27;2.40;;;2.20;;
34290;SDS011;20553;47.544;7.586;2022-09-02T11:46:54;2.38;;;2.10;;
34290;SDS011;20553;47.544;7.586;2022-09-02T11:52:26;1.75;;;1.65;;
34290;SDS011;20553;47.544;7.586;2022-09-02T11:57:50;1.88;;;1.77;;
34290;SDS011;20553;47.544;7.586;2022-09-02T12:03:10;2.55;;;1.98;;
34290;SDS011;20553;47.544;7.586;2022-09-02T12:09:04;2.85;;;1.83;;
34290;SDS011;20553;47.544;7.586;2022-09-02T12:26:08;2.10;;;1.92;;
34290;SDS011;20553;47.544;7.586;2022-09-02T12:31:35;2.75;;;2.33;;
34290;SDS011;20553;47.544;7.586;2022-09-02T12:36:45;2.40;;;2.20;;
34290;SDS011;20553;47.544;7.586;2022-09-02T12:41:57;1.90;;;1.80;;
34290;SDS011;20553;47.544;7.586;2022-09-02T12:47:22;2.13;;;1.90;;
34290;SDS011;20553;47.544;7.586;2022-09-02T12:52:43;2.58;;;2.05;;
34290;SDS011;20553;47.544;7.586;2022-09-02T12:57:51;2.67;;;2.30;;
34290;SDS011;20553;47.544;7.586;2022-09-02T13:03:14;2.65;;;2.45;;
34290;SDS011;20553;47.544;7.586;2022-09-02T13:26:05;2.50;;;2.30;;
34290;SDS011;20553;47.544;7.586;2022-09-02T13:31:58;2.88;;;2.67;;
34290;SDS011;20553;47.544;7.586;2022-09-02T13:37:07;2.90;;;2.70;;
34290;SDS011;20553;47.544;7.586;2022-09-02T13:42:33;3.20;;;3.00;;
34290;SDS011;20553;47.544;7.586;2022-09-02T13:47:41;2.43;;;2.33;;
34290;SDS011;20553;47.544;7.586;2022-09-02T13:52:50;2.77;;;2.53;;
34290;SDS011;20553;47.544;7.586;2022-09-02T13:58:22;2.90;;;2.70;;
34290;SDS011;20553;47.544;7.586;2022-09-02T14:03:38;3.13;;;2.92;;
34290;SDS011;20553;47.544;7.586;2022-09-02T14:08:51;3.20;;;3.00;;
34290;SDS011;20553;47.544;7.586;2022-09-02T14:14:01;4.20;;;3.22;;
34290;SDS011;20553;47.544;7.586;2022-09-02T14:19:08;3.72;;;3.38;;
34290;SDS011;20553;47.544;7.586;2022-09-02T14:24:27;3.80;;;3.50;;
34290;SDS011;20553;47.544;7.586;2022-09-02T14:29:41;5.05;;;3.97;;
34290;SDS011;20553;47.544;7.586;2022-09-02T14:35:06;3.90;;;3.35;;
34290;SDS011;20553;47.544;7.586;2022-09-02T14:40:34;4.35;;;3.92;;
34290;SDS011;20553;47.544;7.586;2022-09-02T14:45:42;4.07;;;3.67;;
34290;SDS011;20553;47.544;7.586;2022-09-02T14:50:57;3.50;;;3.20;;
34290;SDS011;20553;47.544;7.586;2022-09-02T14:56:06;5.37;;;4.23;;
34290;SDS011;20553;47.544;7.586;2022-09-02T15:01:10;7.15;;;3.80;;
34290;SDS011;20553;47.544;7.586;2022-09-02T15:06:19;5.85;;;2.28;;
34290;SDS011;20553;47.544;7.586;2022-09-02T15:11:24;8.45;;;2.30;;
34290;SDS011;20553;47.544;7.586;2022-09-02T15:16:32;14.70;;;3.78;;
34290;SDS011;20553;47.544;7.586;2022-09-02T15:21:38;14.27;;;9.20;;
34290;SDS011;20553;47.544;7.586;2022-09-02T15:26:43;10.23;;;7.07;;
34290;SDS011;20553;47.544;7.586;2022-09-02T15:31:49;11.05;;;7.25;;
34290;SDS011;20553;47.544;7.586;2022-09-02T15:36:57;15.23;;;8.30;;
34290;SDS011;20553;47.544;7.586;2022-09-02T15:42:01;7.80;;;5.50;;
34290;SDS011;20553;47.544;7.586;2022-09-02T15:47:09;9.82;;;5.60;;
34290;SDS011;20553;47.544;7.586;2022-09-02T15:52:15;8.10;;;5.80;;
34290;SDS011;20553;47.544;7.586;2022-09-02T15:57:20;7.18;;;4.70;;
34290;SDS011;20553;47.544;7.586;2022-09-02T16:02:30;12.23;;;7.37;;
34290;SDS011;20553;47.544;7.586;2022-09-02T16:07:36;9.27;;;6.07;;
34290;SDS011;20553;47.544;7.586;2022-09-02T16:12:41;8.48;;;4.35;;
34290;SDS011;20553;47.544;7.586;2022-09-02T16:17:45;9.95;;;5.50;;
34290;SDS011;20553;47.544;7.586;2022-09-02T16:28:27;9.10;;;4.57;;
34290;SDS011;20553;47.544;7.586;2022-09-02T16:33:34;6.70;;;4.00;;
34290;SDS011;20553;47.544;7.586;2022-09-02T16:38:45;6.30;;;4.40;;
34290;SDS011;20553;47.544;7.586;2022-09-02T16:43:52;5.90;;;3.88;;
34290;SDS011;20553;47.544;7.586;2022-09-02T16:49:00;7.05;;;4.78;;
34290;SDS011;20553;47.544;7.586;2022-09-02T16:54:34;6.63;;;4.27;;
34290;SDS011;20553;47.544;7.586;2022-09-02T16:59:42;4.77;;;3.60;;
34290;SDS011;20553;47.544;7.586;2022-09-02T17:04:47;7.13;;;5.10;;
34290;SDS011;20553;47.544;7.586;2022-09-02T17:09:53;7.13;;;5.25;;
34290;SDS011;20553;47.544;7.586;2022-09-02T17:14:57;8.55;;;5.70;;
34290;SDS011;20553;47.544;7.586;2022-09-02T17:20:02;9.83;;;6.27;;
34290;SDS011;20553;47.544;7.586;2022-09-02T17:25:09;10.60;;;7.57;;
34290;SDS011;20553;47.544;7.586;2022-09-02T17:30:14;15.73;;;9.32;;
34290;SDS011;20553;47.544;7.586;2022-09-02T17:35:19;15.73;;;10.03;;
34290;SDS011;20553;47.544;7.586;2022-09-02T17:40:26;14.57;;;10.57;;
34290;SDS011;20553;47.544;7.586;2022-09-02T17:45:48;14.43;;;9.82;;
34290;SDS011;20553;47.544;7.586;2022-09-02T17:50:54;16.15;;;11.57;;
34290;SDS011;20553;47.544;7.586;2022-09-02T17:56:02;19.93;;;12.90;;
34290;SDS011;20553;47.544;7.586;2022-09-02T18:01:26;15.68;;;11.85;;
34290;SDS011;20553;47.544;7.586;2022-09-02T18:06:37;15.05;;;10.50;;
34290;SDS011;20553;47.544;7.586;2022-09-02T18:11:48;17.85;;;11.63;;
34290;SDS011;20553;47.544;7.586;2022-09-02T18:24:08;20.90;;;12.75;;
34290;SDS011;20553;47.544;7.586;2022-09-02T18:31:30;22.97;;;15.30;;
34290;SDS011;20553;47.544;7.586;2022-09-02T18:36:58;62.67;;;43.97;;
34290;SDS011;20553;47.544;7.586;2022-09-02T18:42:18;17.77;;;10.20;;
34290;SDS011;20553;47.544;7.586;2022-09-02T18:47:37;16.47;;;10.80;;
34290;SDS011;20553;47.544;7.586;2022-09-02T18:52:51;14.60;;;10.80;;
34290;SDS011;20553;47.544;7.586;2022-09-02T18:58:01;14.60;;;10.88;;
34290;SDS011;20553;47.544;7.586;2022-09-02T19:03:15;13.87;;;10.10;;
34290;SDS011;20553;47.544;7.586;2022-09-02T19:08:20;14.17;;;10.83;;
34290;SDS011;20553;47.544;7.586;2022-09-02T19:13:40;18.10;;;12.63;;
34290;SDS011;20553;47.544;7.586;2022-09-02T19:18:52;18.65;;;11.93;;
34290;SDS011;20553;47.544;7.586;2022-09-02T19:24:01;19.95;;;12.48;;
34290;SDS011;20553;47.544;7.586;2022-09-02T19:29:11;19.63;;;14.45;;
34290;SDS011;20553;47.544;7.586;2022-09-02T19:34:21;18.33;;;13.60;;
34290;SDS011;20553;47.544;7.586;2022-09-02T19:39:36;17.37;;;13.17;;
34290;SDS011;20553;47.544;7.586;2022-09-02T19:44:41;19.88;;;14.35;;
34290;SDS011;20553;47.544;7.586;2022-09-02T19:49:51;18.33;;;13.07;;
34290;SDS011;20553;47.544;7.586;2022-09-02T19:54:56;19.17;;;13.00;;
34290;SDS011;20553;47.544;7.586;2022-09-02T20:00:02;15.93;;;12.30;;
34290;SDS011;20553;47.544;7.586;2022-09-02T20:05:12;15.55;;;11.70;;
34290;SDS011;20553;47.544;7.586;2022-09-02T20:10:17;18.02;;;11.50;;
34290;SDS011;20553;47.544;7.586;2022-09-02T20:15:33;12.93;;;9.00;;
34290;SDS011;20553;47.544;7.586;2022-09-02T20:20:42;13.98;;;10.05;;
34290;SDS011;20553;47.544;7.586;2022-09-02T20:25:55;17.73;;;11.52;;
34290;SDS011;20553;47.544;7.586;2022-09-02T20:31:20;18.10;;;12.63;;
34290;SDS011;20553;47.544;7.586;2022-09-02T20:44:11;18.02;;;12.50;;
34290;SDS011;20553;47.544;7.586;2022-09-02T20:49:47;18.98;;;13.95;;
34290;SDS011;20553;47.544;7.586;2022-09-02T20:55:14;18.65;;;14.23;;
34290;SDS011;20553;47.544;7.586;2022-09-02T21:00:27;21.10;;;16.27;;
34290;SDS011;20553;47.544;7.586;2022-09-02T21:05:39;23.77;;;18.83;;
34290;SDS011;20553;47.544;7.586;2022-09-02T21:10:53;22.77;;;16.50;;
34290;SDS011;20553;47.544;7.586;2022-09-02T21:16:06;23.02;;;15.75;;
34290;SDS011;20553;47.544;7.586;2022-09-02T21:21:22;24.73;;;15.47;;
34290;SDS011;20553;47.544;7.586;2022-09-02T21:26:39;18.70;;;13.55;;
34290;SDS011;20553;47.544;7.586;2022-09-02T21:31:53;23.35;;;14.50;;
34290;SDS011;20553;47.544;7.586;2022-09-02T21:37:02;21.67;;;13.88;;
